sensor_id;sensor_type;location;lat;lon;timestamp;P1;durP1;ratioP1;P2;durP2;ratioP2
4642;SDS011;2334;48.710;9.622;2024-01-07T00:02:04;12.70;;;7.27;;
4642;SDS011;2334;48.710;9.622;2024-01-07T00:04:32;13.43;;;7.43;;
4642;SDS011;2334;48.710;9.622;2024-01-07T00:06:59;11.80;;;7.10;;
4642;SDS011;2334;48.710;9.622;2024-01-07T00:09:26;15.43;;;8.00;;
4642;SDS011;2334;48.710;9.622;2024-01-07T00:11:53;13.37;;;8.00;;
4642;SDS011;2334;48.710;9.622;2024-01-07T00:14:20;14.60;;;8.10;;
4642;SDS011;2334;48.710;9.622;2024-01-07T00:16:47;13.07;;;6.83;;
4642;SDS011;2334;48.710;9.622;2024-01-07T00:19:14;15.10;;;8.27;;
4642;SDS011;2334;48.710;9.622;2024-01-07T00:21:42;15.37;;;7.70;;
4642;SDS011;2334;48.710;9.622;2024-01-07T00:24:09;15.93;;;7.47;;
4642;SDS011;2334;48.710;9.622;2024-01-07T00:26:36;12.00;;;7.73;;
4642;SDS011;2334;48.710;9.622;2024-01-07T00:29:02;14.23;;;6.97;;
4642;SDS011;2334;48.710;9.622;2024-01-07T00:31:29;20.47;;;8.13;;
4642;SDS011;2334;48.710;9.622;2024-01-07T00:33:56;12.20;;;7.87;;
4642;SDS011;2334;48.710;9.622;2024-01-07T00:36:23;12.10;;;7.00;;
4642;SDS011;2334;48.710;9.622;2024-01-07T00:38:51;13.67;;;7.60;;
4642;SDS011;2334;48.710;9.622;2024-01-07T00:41:18;13.57;;;7.80;;
4642;SDS011;2334;48.710;9.622;2024-01-07T00:43:45;15.43;;;7.63;;
4642;SDS011;2334;48.710;9.622;2024-01-07T00:46:12;13.30;;;8.13;;
4642;SDS011;2334;48.710;9.622;2024-01-07T00:48:38;14.70;;;7.40;;
4642;SDS011;2334;48.710;9.622;2024-01-07T00:51:05;11.53;;;6.97;;
4642;SDS011;2334;48.710;9.622;2024-01-07T00:53:32;14.07;;;7.10;;
4642;SDS011;2334;48.710;9.622;2024-01-07T00:56:00;12.97;;;7.27;;
4642;SDS011;2334;48.710;9.622;2024-01-07T00:58:27;13.70;;;6.23;;
4642;SDS011;2334;48.710;9.622;2024-01-07T01:00:54;12.10;;;7.80;;
4642;SDS011;2334;48.710;9.622;2024-01-07T01:03:21;13.20;;;7.33;;
4642;SDS011;2334;48.710;9.622;2024-01-07T01:05:48;15.57;;;7.10;;
4642;SDS011;2334;48.710;9.622;2024-01-07T01:08:15;11.80;;;7.00;;
4642;SDS011;2334;48.710;9.622;2024-01-07T01:10:42;16.70;;;9.03;;
4642;SDS011;2334;48.710;9.622;2024-01-07T01:13:10;9.87;;;5.60;;
4642;SDS011;2334;48.710;9.622;2024-01-07T01:15:37;13.63;;;6.03;;
4642;SDS011;2334;48.710;9.622;2024-01-07T01:18:04;13.10;;;6.83;;
4642;SDS011;2334;48.710;9.622;2024-01-07T01:20:31;13.93;;;7.17;;
4642;SDS011;2334;48.710;9.622;2024-01-07T01:22:58;19.00;;;7.20;;
4642;SDS011;2334;48.710;9.622;2024-01-07T01:25:25;12.40;;;6.40;;
4642;SDS011;2334;48.710;9.622;2024-01-07T01:27:52;15.93;;;7.40;;
4642;SDS011;2334;48.710;9.622;2024-01-07T01:30:20;11.80;;;6.90;;
4642;SDS011;2334;48.710;9.622;2024-01-07T01:32:47;19.13;;;8.90;;
4642;SDS011;2334;48.710;9.622;2024-01-07T01:35:14;12.77;;;7.70;;
4642;SDS011;2334;48.710;9.622;2024-01-07T01:37:41;11.80;;;7.43;;
4642;SDS011;2334;48.710;9.622;2024-01-07T01:40:08;16.33;;;8.00;;
4642;SDS011;2334;48.710;9.622;2024-01-07T01:42:35;12.40;;;6.90;;
4642;SDS011;2334;48.710;9.622;2024-01-07T01:45:02;11.23;;;7.07;;
4642;SDS011;2334;48.710;9.622;2024-01-07T01:47:31;13.73;;;6.97;;
4642;SDS011;2334;48.710;9.622;2024-01-07T01:49:58;15.03;;;7.23;;
4642;SDS011;2334;48.710;9.622;2024-01-07T01:52:25;16.87;;;8.53;;
4642;SDS011;2334;48.710;9.622;2024-01-07T01:54:53;13.07;;;7.30;;
4642;SDS011;2334;48.710;9.622;2024-01-07T01:57:21;17.77;;;9.93;;
4642;SDS011;2334;48.710;9.622;2024-01-07T01:59:50;18.03;;;7.60;;
4642;SDS011;2334;48.710;9.622;2024-01-07T02:02:18;20.50;;;7.97;;
4642;SDS011;2334;48.710;9.622;2024-01-07T02:04:46;11.30;;;6.83;;
4642;SDS011;2334;48.710;9.622;2024-01-07T02:07:13;16.77;;;7.53;;
4642;SDS011;2334;48.710;9.622;2024-01-07T02:09:40;11.60;;;7.23;;
4642;SDS011;2334;48.710;9.622;2024-01-07T02:12:07;11.70;;;7.27;;
4642;SDS011;2334;48.710;9.622;2024-01-07T02:14:36;16.77;;;8.47;;
4642;SDS011;2334;48.710;9.622;2024-01-07T02:17:04;11.20;;;7.57;;
4642;SDS011;2334;48.710;9.622;2024-01-07T02:19:31;12.23;;;7.20;;
4642;SDS011;2334;48.710;9.622;2024-01-07T02:21:59;12.47;;;7.77;;
4642;SDS011;2334;48.710;9.622;2024-01-07T02:24:28;15.03;;;8.23;;
4642;SDS011;2334;48.710;9.622;2024-01-07T02:26:55;14.63;;;7.70;;
4642;SDS011;2334;48.710;9.622;2024-01-07T02:29:22;17.00;;;8.00;;
4642;SDS011;2334;48.710;9.622;2024-01-07T02:31:49;15.73;;;7.50;;
4642;SDS011;2334;48.710;9.622;2024-01-07T02:34:16;15.50;;;7.70;;
4642;SDS011;2334;48.710;9.622;2024-01-07T02:36:43;14.67;;;8.30;;
4642;SDS011;2334;48.710;9.622;2024-01-07T02:39:09;13.87;;;6.83;;
4642;SDS011;2334;48.710;9.622;2024-01-07T02:41:38;11.57;;;7.53;;
4642;SDS011;2334;48.710;9.622;2024-01-07T02:44:04;14.40;;;6.87;;
4642;SDS011;2334;48.710;9.622;2024-01-07T02:46:31;11.83;;;6.70;;
4642;SDS011;2334;48.710;9.622;2024-01-07T02:48:58;12.90;;;7.30;;
4642;SDS011;2334;48.710;9.622;2024-01-07T02:51:25;13.13;;;7.70;;
4642;SDS011;2334;48.710;9.622;2024-01-07T02:53:52;16.70;;;7.17;;
4642;SDS011;2334;48.710;9.622;2024-01-07T02:56:19;17.23;;;7.10;;
4642;SDS011;2334;48.710;9.622;2024-01-07T02:58:47;13.30;;;6.93;;
4642;SDS011;2334;48.710;9.622;2024-01-07T03:01:14;12.30;;;6.63;;
4642;SDS011;2334;48.710;9.622;2024-01-07T03:03:40;17.30;;;7.80;;
4642;SDS011;2334;48.710;9.622;2024-01-07T03:06:07;13.77;;;8.03;;
4642;SDS011;2334;48.710;9.622;2024-01-07T03:08:34;13.60;;;6.53;;
4642;SDS011;2334;48.710;9.622;2024-01-07T03:11:04;17.23;;;8.37;;
4642;SDS011;2334;48.710;9.622;2024-01-07T03:13:31;17.17;;;8.37;;
4642;SDS011;2334;48.710;9.622;2024-01-07T03:16:00;15.50;;;7.90;;
4642;SDS011;2334;48.710;9.622;2024-01-07T03:18:27;14.23;;;7.33;;
4642;SDS011;2334;48.710;9.622;2024-01-07T03:20:54;13.33;;;7.43;;
4642;SDS011;2334;48.710;9.622;2024-01-07T03:23:21;10.60;;;6.60;;
4642;SDS011;2334;48.710;9.622;2024-01-07T03:25:48;15.07;;;6.37;;
4642;SDS011;2334;48.710;9.622;2024-01-07T03:28:15;10.20;;;7.30;;
4642;SDS011;2334;48.710;9.622;2024-01-07T03:30:42;12.07;;;7.33;;
4642;SDS011;2334;48.710;9.622;2024-01-07T03:33:10;13.27;;;7.93;;
4642;SDS011;2334;48.710;9.622;2024-01-07T03:35:37;15.63;;;7.50;;
4642;SDS011;2334;48.710;9.622;2024-01-07T03:38:03;12.30;;;7.20;;
4642;SDS011;2334;48.710;9.622;2024-01-07T03:40:30;11.20;;;6.33;;
4642;SDS011;2334;48.710;9.622;2024-01-07T03:42:57;8.90;;;6.20;;
4642;SDS011;2334;48.710;9.622;2024-01-07T03:45:24;14.87;;;6.53;;
4642;SDS011;2334;48.710;9.622;2024-01-07T03:47:51;10.53;;;6.50;;
4642;SDS011;2334;48.710;9.622;2024-01-07T03:50:20;11.00;;;6.30;;
4642;SDS011;2334;48.710;9.622;2024-01-07T03:52:47;13.47;;;7.00;;
4642;SDS011;2334;48.710;9.622;2024-01-07T03:55:13;10.47;;;5.70;;
4642;SDS011;2334;48.710;9.622;2024-01-07T03:57:40;14.37;;;7.13;;
4642;SDS011;2334;48.710;9.622;2024-01-07T04:00:08;12.30;;;6.93;;
4642;SDS011;2334;48.710;9.622;2024-01-07T04:02:35;12.50;;;7.33;;
4642;SDS011;2334;48.710;9.622;2024-01-07T04:05:03;12.63;;;7.73;;
4642;SDS011;2334;48.710;9.622;2024-01-07T04:07:32;14.97;;;7.93;;
4642;SDS011;2334;48.710;9.622;2024-01-07T04:09:58;13.77;;;6.50;;
4642;SDS011;2334;48.710;9.622;2024-01-07T04:12:25;15.30;;;6.93;;
4642;SDS011;2334;48.710;9.622;2024-01-07T04:14:52;15.07;;;7.60;;
4642;SDS011;2334;48.710;9.622;2024-01-07T04:17:19;15.77;;;7.20;;
4642;SDS011;2334;48.710;9.622;2024-01-07T04:19:46;12.57;;;7.30;;
4642;SDS011;2334;48.710;9.622;2024-01-07T04:22:13;11.00;;;6.30;;
4642;SDS011;2334;48.710;9.622;2024-01-07T04:24:41;15.00;;;7.20;;
4642;SDS011;2334;48.710;9.622;2024-01-07T04:27:08;14.20;;;7.50;;
4642;SDS011;2334;48.710;9.622;2024-01-07T04:29:35;14.57;;;7.77;;
4642;SDS011;2334;48.710;9.622;2024-01-07T04:32:02;16.70;;;7.73;;
4642;SDS011;2334;48.710;9.622;2024-01-07T04:34:29;11.93;;;7.03;;
4642;SDS011;2334;48.710;9.622;2024-01-07T04:36:56;19.73;;;8.47;;
4642;SDS011;2334;48.710;9.622;2024-01-07T04:39:23;15.57;;;7.40;;
4642;SDS011;2334;48.710;9.622;2024-01-07T04:41:52;14.60;;;7.60;;
4642;SDS011;2334;48.710;9.622;2024-01-07T04:44:19;17.50;;;7.20;;
4642;SDS011;2334;48.710;9.622;2024-01-07T04:46:47;11.30;;;7.40;;
4642;SDS011;2334;48.710;9.622;2024-01-07T04:49:14;13.40;;;7.63;;
4642;SDS011;2334;48.710;9.622;2024-01-07T04:51:41;17.13;;;9.13;;
4642;SDS011;2334;48.710;9.622;2024-01-07T04:54:07;16.10;;;8.17;;
4642;SDS011;2334;48.710;9.622;2024-01-07T04:56:34;13.00;;;7.90;;
4642;SDS011;2334;48.710;9.622;2024-01-07T04:59:02;17.50;;;8.07;;
4642;SDS011;2334;48.710;9.622;2024-01-07T05:01:29;13.33;;;8.07;;
4642;SDS011;2334;48.710;9.622;2024-01-07T05:03:58;15.60;;;7.63;;
4642;SDS011;2334;48.710;9.622;2024-01-07T05:06:25;15.40;;;7.87;;
4642;SDS011;2334;48.710;9.622;2024-01-07T05:08:52;12.90;;;8.23;;
4642;SDS011;2334;48.710;9.622;2024-01-07T05:11:19;18.97;;;8.40;;
4642;SDS011;2334;48.710;9.622;2024-01-07T05:13:46;16.93;;;9.43;;
4642;SDS011;2334;48.710;9.622;2024-01-07T05:16:19;13.67;;;7.23;;
4642;SDS011;2334;48.710;9.622;2024-01-07T05:18:46;11.20;;;7.13;;
4642;SDS011;2334;48.710;9.622;2024-01-07T05:21:13;13.10;;;7.90;;
4642;SDS011;2334;48.710;9.622;2024-01-07T05:23:40;12.83;;;6.67;;
4642;SDS011;2334;48.710;9.622;2024-01-07T05:26:08;14.73;;;8.30;;
4642;SDS011;2334;48.710;9.622;2024-01-07T05:28:36;16.23;;;8.00;;
4642;SDS011;2334;48.710;9.622;2024-01-07T05:31:03;16.93;;;8.20;;
4642;SDS011;2334;48.710;9.622;2024-01-07T05:33:31;19.93;;;8.57;;
4642;SDS011;2334;48.710;9.622;2024-01-07T05:35:58;16.40;;;8.57;;
4642;SDS011;2334;48.710;9.622;2024-01-07T05:38:25;16.80;;;8.97;;
4642;SDS011;2334;48.710;9.622;2024-01-07T05:40:52;17.80;;;7.97;;
4642;SDS011;2334;48.710;9.622;2024-01-07T05:43:19;9.30;;;6.40;;
4642;SDS011;2334;48.710;9.622;2024-01-07T05:45:46;17.10;;;8.97;;
4642;SDS011;2334;48.710;9.622;2024-01-07T05:48:12;16.53;;;8.97;;
4642;SDS011;2334;48.710;9.622;2024-01-07T05:50:41;12.77;;;7.43;;
4642;SDS011;2334;48.710;9.622;2024-01-07T05:53:08;13.40;;;9.03;;
4642;SDS011;2334;48.710;9.622;2024-01-07T05:55:34;16.60;;;8.87;;
4642;SDS011;2334;48.710;9.622;2024-01-07T05:58:01;15.90;;;8.40;;
4642;SDS011;2334;48.710;9.622;2024-01-07T06:00:28;15.77;;;8.30;;
4642;SDS011;2334;48.710;9.622;2024-01-07T06:02:55;14.83;;;8.57;;
4642;SDS011;2334;48.710;9.622;2024-01-07T06:05:22;11.83;;;7.40;;
4642;SDS011;2334;48.710;9.622;2024-01-07T06:07:51;19.03;;;9.30;;
4642;SDS011;2334;48.710;9.622;2024-01-07T06:10:18;16.23;;;7.73;;
4642;SDS011;2334;48.710;9.622;2024-01-07T06:12:46;16.10;;;9.20;;
4642;SDS011;2334;48.710;9.622;2024-01-07T06:15:13;14.30;;;7.70;;
4642;SDS011;2334;48.710;9.622;2024-01-07T06:17:39;18.60;;;9.30;;
4642;SDS011;2334;48.710;9.622;2024-01-07T06:20:06;17.70;;;7.90;;
4642;SDS011;2334;48.710;9.622;2024-01-07T06:22:34;21.53;;;9.40;;
4642;SDS011;2334;48.710;9.622;2024-01-07T06:25:02;14.63;;;8.50;;
4642;SDS011;2334;48.710;9.622;2024-01-07T06:27:30;18.97;;;10.00;;
4642;SDS011;2334;48.710;9.622;2024-01-07T06:29:57;18.20;;;8.30;;
4642;SDS011;2334;48.710;9.622;2024-01-07T06:32:24;20.10;;;9.07;;
4642;SDS011;2334;48.710;9.622;2024-01-07T06:34:51;15.10;;;8.43;;
4642;SDS011;2334;48.710;9.622;2024-01-07T06:37:18;17.47;;;9.77;;
4642;SDS011;2334;48.710;9.622;2024-01-07T06:39:44;23.80;;;9.90;;
4642;SDS011;2334;48.710;9.622;2024-01-07T06:42:13;17.90;;;9.70;;
4642;SDS011;2334;48.710;9.622;2024-01-07T06:44:40;23.20;;;9.87;;
4642;SDS011;2334;48.710;9.622;2024-01-07T06:47:06;17.57;;;8.37;;
4642;SDS011;2334;48.710;9.622;2024-01-07T06:49:33;17.93;;;9.53;;
4642;SDS011;2334;48.710;9.622;2024-01-07T06:52:00;10.93;;;7.43;;
4642;SDS011;2334;48.710;9.622;2024-01-07T06:54:27;14.63;;;8.10;;
4642;SDS011;2334;48.710;9.622;2024-01-07T06:56:54;15.80;;;8.17;;
4642;SDS011;2334;48.710;9.622;2024-01-07T06:59:22;14.90;;;8.83;;
4642;SDS011;2334;48.710;9.622;2024-01-07T07:01:49;14.87;;;9.20;;
4642;SDS011;2334;48.710;9.622;2024-01-07T07:04:16;14.80;;;8.70;;
4642;SDS011;2334;48.710;9.622;2024-01-07T07:06:43;17.83;;;9.50;;
4642;SDS011;2334;48.710;9.622;2024-01-07T07:09:09;11.53;;;7.30;;
4642;SDS011;2334;48.710;9.622;2024-01-07T07:11:38;14.70;;;9.17;;
4642;SDS011;2334;48.710;9.622;2024-01-07T07:14:04;17.13;;;8.27;;
4642;SDS011;2334;48.710;9.622;2024-01-07T07:16:33;18.30;;;9.20;;
4642;SDS011;2334;48.710;9.622;2024-01-07T07:19:00;14.23;;;8.67;;
4642;SDS011;2334;48.710;9.622;2024-01-07T07:21:27;15.80;;;9.10;;
4642;SDS011;2334;48.710;9.622;2024-01-07T07:23:54;18.17;;;8.70;;
4642;SDS011;2334;48.710;9.622;2024-01-07T07:26:21;12.07;;;8.53;;
4642;SDS011;2334;48.710;9.622;2024-01-07T07:28:47;17.53;;;8.63;;
4642;SDS011;2334;48.710;9.622;2024-01-07T07:31:14;16.30;;;8.40;;
4642;SDS011;2334;48.710;9.622;2024-01-07T07:33:43;13.53;;;7.33;;
4642;SDS011;2334;48.710;9.622;2024-01-07T07:36:09;12.87;;;7.47;;
4642;SDS011;2334;48.710;9.622;2024-01-07T07:38:36;13.47;;;8.10;;
4642;SDS011;2334;48.710;9.622;2024-01-07T07:41:03;10.10;;;6.23;;
4642;SDS011;2334;48.710;9.622;2024-01-07T07:43:30;11.43;;;6.93;;
4642;SDS011;2334;48.710;9.622;2024-01-07T07:45:57;10.50;;;6.17;;
4642;SDS011;2334;48.710;9.622;2024-01-07T07:48:24;13.70;;;7.50;;
4642;SDS011;2334;48.710;9.622;2024-01-07T07:50:54;11.47;;;6.57;;
4642;SDS011;2334;48.710;9.622;2024-01-07T07:53:21;11.00;;;7.30;;
4642;SDS011;2334;48.710;9.622;2024-01-07T07:55:48;8.20;;;5.73;;
4642;SDS011;2334;48.710;9.622;2024-01-07T07:58:15;13.53;;;7.07;;
4642;SDS011;2334;48.710;9.622;2024-01-07T08:00:41;12.77;;;6.60;;
4642;SDS011;2334;48.710;9.622;2024-01-07T08:03:09;14.40;;;7.10;;
4642;SDS011;2334;48.710;9.622;2024-01-07T08:05:36;14.30;;;6.53;;
4642;SDS011;2334;48.710;9.622;2024-01-07T08:08:05;14.73;;;7.50;;
4642;SDS011;2334;48.710;9.622;2024-01-07T08:10:32;11.73;;;6.80;;
4642;SDS011;2334;48.710;9.622;2024-01-07T08:13:00;13.20;;;7.17;;
4642;SDS011;2334;48.710;9.622;2024-01-07T08:15:27;13.27;;;7.33;;
4642;SDS011;2334;48.710;9.622;2024-01-07T08:17:54;13.80;;;6.20;;
4642;SDS011;2334;48.710;9.622;2024-01-07T08:20:21;13.57;;;7.27;;
4642;SDS011;2334;48.710;9.622;2024-01-07T08:22:47;12.00;;;6.20;;
4642;SDS011;2334;48.710;9.622;2024-01-07T08:25:17;12.57;;;7.10;;
4642;SDS011;2334;48.710;9.622;2024-01-07T08:27:44;13.40;;;7.00;;
4642;SDS011;2334;48.710;9.622;2024-01-07T08:30:11;15.67;;;7.97;;
4642;SDS011;2334;48.710;9.622;2024-01-07T08:32:38;13.43;;;7.83;;
4642;SDS011;2334;48.710;9.622;2024-01-07T08:35:05;14.40;;;6.70;;
4642;SDS011;2334;48.710;9.622;2024-01-07T08:37:33;12.20;;;6.70;;
4642;SDS011;2334;48.710;9.622;2024-01-07T08:39:59;11.47;;;6.67;;
4642;SDS011;2334;48.710;9.622;2024-01-07T08:42:28;14.57;;;7.47;;
4642;SDS011;2334;48.710;9.622;2024-01-07T08:44:55;12.80;;;6.70;;
4642;SDS011;2334;48.710;9.622;2024-01-07T08:47:23;14.57;;;6.57;;
4642;SDS011;2334;48.710;9.622;2024-01-07T08:49:50;14.60;;;6.57;;
4642;SDS011;2334;48.710;9.622;2024-01-07T08:52:18;14.37;;;6.73;;
4642;SDS011;2334;48.710;9.622;2024-01-07T08:54:45;13.17;;;7.20;;
4642;SDS011;2334;48.710;9.622;2024-01-07T08:57:12;13.70;;;6.73;;
4642;SDS011;2334;48.710;9.622;2024-01-07T08:59:40;14.73;;;7.77;;
4642;SDS011;2334;48.710;9.622;2024-01-07T09:02:07;12.10;;;6.77;;
4642;SDS011;2334;48.710;9.622;2024-01-07T09:04:34;9.73;;;6.17;;
4642;SDS011;2334;48.710;9.622;2024-01-07T09:07:01;10.47;;;5.77;;
4642;SDS011;2334;48.710;9.622;2024-01-07T09:09:28;8.77;;;6.20;;
4642;SDS011;2334;48.710;9.622;2024-01-07T09:11:54;11.40;;;5.87;;
4642;SDS011;2334;48.710;9.622;2024-01-07T09:14:22;17.27;;;7.27;;
4642;SDS011;2334;48.710;9.622;2024-01-07T09:16:51;15.70;;;7.43;;
4642;SDS011;2334;48.710;9.622;2024-01-07T09:19:18;17.00;;;6.60;;
4642;SDS011;2334;48.710;9.622;2024-01-07T09:21:46;7.97;;;5.20;;
4642;SDS011;2334;48.710;9.622;2024-01-07T09:24:13;8.70;;;5.57;;
4642;SDS011;2334;48.710;9.622;2024-01-07T09:26:40;10.10;;;4.73;;
4642;SDS011;2334;48.710;9.622;2024-01-07T09:29:07;9.77;;;5.33;;
4642;SDS011;2334;48.710;9.622;2024-01-07T09:31:35;10.83;;;5.87;;
4642;SDS011;2334;48.710;9.622;2024-01-07T09:34:03;10.50;;;5.37;;
4642;SDS011;2334;48.710;9.622;2024-01-07T09:36:31;13.40;;;5.40;;
4642;SDS011;2334;48.710;9.622;2024-01-07T09:38:58;10.00;;;4.90;;
4642;SDS011;2334;48.710;9.622;2024-01-07T09:41:25;7.23;;;4.40;;
4642;SDS011;2334;48.710;9.622;2024-01-07T09:43:52;8.63;;;5.10;;
4642;SDS011;2334;48.710;9.622;2024-01-07T09:46:19;10.43;;;4.90;;
4642;SDS011;2334;48.710;9.622;2024-01-07T09:48:46;6.10;;;3.90;;
4642;SDS011;2334;48.710;9.622;2024-01-07T09:51:15;6.30;;;3.90;;
4642;SDS011;2334;48.710;9.622;2024-01-07T09:53:45;9.30;;;3.60;;
4642;SDS011;2334;48.710;9.622;2024-01-07T09:56:17;6.87;;;4.03;;
4642;SDS011;2334;48.710;9.622;2024-01-07T09:58:49;8.80;;;5.00;;
4642;SDS011;2334;48.710;9.622;2024-01-07T10:01:16;7.30;;;4.77;;
4642;SDS011;2334;48.710;9.622;2024-01-07T10:03:43;7.00;;;5.50;;
4642;SDS011;2334;48.710;9.622;2024-01-07T10:06:11;14.13;;;3.80;;
4642;SDS011;2334;48.710;9.622;2024-01-07T10:08:39;9.03;;;4.43;;
4642;SDS011;2334;48.710;9.622;2024-01-07T10:11:06;8.00;;;5.00;;
4642;SDS011;2334;48.710;9.622;2024-01-07T10:13:34;6.30;;;4.27;;
4642;SDS011;2334;48.710;9.622;2024-01-07T10:16:01;7.03;;;3.57;;
4642;SDS011;2334;48.710;9.622;2024-01-07T10:18:28;6.30;;;4.17;;
4642;SDS011;2334;48.710;9.622;2024-01-07T10:21:01;7.57;;;4.30;;
4642;SDS011;2334;48.710;9.622;2024-01-07T10:23:29;11.60;;;4.77;;
4642;SDS011;2334;48.710;9.622;2024-01-07T10:25:58;8.20;;;4.70;;
4642;SDS011;2334;48.710;9.622;2024-01-07T10:28:27;5.37;;;3.93;;
4642;SDS011;2334;48.710;9.622;2024-01-07T10:30:54;6.87;;;3.63;;
4642;SDS011;2334;48.710;9.622;2024-01-07T10:33:21;8.70;;;5.40;;
4642;SDS011;2334;48.710;9.622;2024-01-07T10:35:51;8.00;;;4.77;;
4642;SDS011;2334;48.710;9.622;2024-01-07T10:38:21;5.97;;;4.37;;
4642;SDS011;2334;48.710;9.622;2024-01-07T10:40:48;8.00;;;5.03;;
4642;SDS011;2334;48.710;9.622;2024-01-07T10:43:19;8.87;;;5.37;;
4642;SDS011;2334;48.710;9.622;2024-01-07T10:45:47;8.37;;;5.00;;
4642;SDS011;2334;48.710;9.622;2024-01-07T10:48:15;15.90;;;5.00;;
4642;SDS011;2334;48.710;9.622;2024-01-07T10:50:44;7.33;;;5.07;;
4642;SDS011;2334;48.710;9.622;2024-01-07T10:53:15;9.77;;;5.03;;
4642;SDS011;2334;48.710;9.622;2024-01-07T10:58:32;6.00;;;4.10;;
4642;SDS011;2334;48.710;9.622;2024-01-07T11:01:00;6.97;;;4.27;;
4642;SDS011;2334;48.710;9.622;2024-01-07T11:03:32;5.43;;;4.33;;
4642;SDS011;2334;48.710;9.622;2024-01-07T11:06:06;8.60;;;4.77;;
4642;SDS011;2334;48.710;9.622;2024-01-07T11:08:43;8.97;;;5.00;;
4642;SDS011;2334;48.710;9.622;2024-01-07T11:11:18;10.97;;;4.70;;
4642;SDS011;2334;48.710;9.622;2024-01-07T11:13:53;8.93;;;4.57;;
4642;SDS011;2334;48.710;9.622;2024-01-07T11:16:40;6.13;;;4.77;;
4642;SDS011;2334;48.710;9.622;2024-01-07T11:19:08;16.83;;;6.30;;
4642;SDS011;2334;48.710;9.622;2024-01-07T11:21:35;9.77;;;5.03;;
4642;SDS011;2334;48.710;9.622;2024-01-07T11:24:02;11.00;;;5.43;;
4642;SDS011;2334;48.710;9.622;2024-01-07T11:26:29;7.17;;;5.07;;
4642;SDS011;2334;48.710;9.622;2024-01-07T11:28:57;7.20;;;5.07;;
4642;SDS011;2334;48.710;9.622;2024-01-07T11:37:09;6.80;;;4.30;;
4642;SDS011;2334;48.710;9.622;2024-01-07T11:39:38;10.93;;;4.63;;
4642;SDS011;2334;48.710;9.622;2024-01-07T11:42:05;9.13;;;4.03;;
4642;SDS011;2334;48.710;9.622;2024-01-07T11:44:36;7.53;;;4.03;;
4642;SDS011;2334;48.710;9.622;2024-01-07T11:47:03;10.70;;;5.37;;
4642;SDS011;2334;48.710;9.622;2024-01-07T11:49:31;12.10;;;5.50;;
4642;SDS011;2334;48.710;9.622;2024-01-07T11:51:58;7.23;;;4.87;;
4642;SDS011;2334;48.710;9.622;2024-01-07T11:54:26;6.73;;;4.50;;
4642;SDS011;2334;48.710;9.622;2024-01-07T11:56:54;8.07;;;4.87;;
4642;SDS011;2334;48.710;9.622;2024-01-07T11:59:22;5.77;;;4.50;;
4642;SDS011;2334;48.710;9.622;2024-01-07T12:01:50;10.60;;;5.17;;
4642;SDS011;2334;48.710;9.622;2024-01-07T12:04:17;8.90;;;5.80;;
4642;SDS011;2334;48.710;9.622;2024-01-07T12:06:44;9.03;;;4.63;;
4642;SDS011;2334;48.710;9.622;2024-01-07T12:09:12;7.87;;;4.97;;
4642;SDS011;2334;48.710;9.622;2024-01-07T12:11:39;6.90;;;4.40;;
4642;SDS011;2334;48.710;9.622;2024-01-07T12:14:06;7.87;;;4.30;;
4642;SDS011;2334;48.710;9.622;2024-01-07T12:16:33;9.47;;;5.10;;
4642;SDS011;2334;48.710;9.622;2024-01-07T12:19:02;7.60;;;4.93;;
4642;SDS011;2334;48.710;9.622;2024-01-07T12:21:29;11.57;;;5.30;;
4642;SDS011;2334;48.710;9.622;2024-01-07T12:23:56;6.53;;;4.57;;
4642;SDS011;2334;48.710;9.622;2024-01-07T12:26:25;10.47;;;5.43;;
4642;SDS011;2334;48.710;9.622;2024-01-07T12:28:53;8.23;;;5.40;;
4642;SDS011;2334;48.710;9.622;2024-01-07T12:31:22;9.93;;;5.77;;
4642;SDS011;2334;48.710;9.622;2024-01-07T12:33:49;10.07;;;5.37;;
4642;SDS011;2334;48.710;9.622;2024-01-07T12:36:21;8.87;;;4.50;;
4642;SDS011;2334;48.710;9.622;2024-01-07T12:38:48;7.83;;;5.40;;
4642;SDS011;2334;48.710;9.622;2024-01-07T12:41:16;8.70;;;4.87;;
4642;SDS011;2334;48.710;9.622;2024-01-07T12:43:44;8.70;;;5.40;;
4642;SDS011;2334;48.710;9.622;2024-01-07T12:46:10;7.83;;;5.10;;
4642;SDS011;2334;48.710;9.622;2024-01-07T12:48:37;12.87;;;6.57;;
4642;SDS011;2334;48.710;9.622;2024-01-07T12:51:04;9.00;;;5.20;;
4642;SDS011;2334;48.710;9.622;2024-01-07T12:53:33;8.03;;;4.63;;
4642;SDS011;2334;48.710;9.622;2024-01-07T12:56:00;8.53;;;4.97;;
4642;SDS011;2334;48.710;9.622;2024-01-07T12:58:28;13.73;;;5.80;;
4642;SDS011;2334;48.710;9.622;2024-01-07T13:00:55;14.50;;;5.97;;
4642;SDS011;2334;48.710;9.622;2024-01-07T13:03:22;8.60;;;5.37;;
4642;SDS011;2334;48.710;9.622;2024-01-07T13:05:50;9.20;;;5.60;;
4642;SDS011;2334;48.710;9.622;2024-01-07T13:08:17;11.03;;;6.20;;
4642;SDS011;2334;48.710;9.622;2024-01-07T13:10:48;12.10;;;5.23;;
4642;SDS011;2334;48.710;9.622;2024-01-07T13:13:15;7.80;;;6.20;;
4642;SDS011;2334;48.710;9.622;2024-01-07T13:15:42;11.23;;;6.60;;
4642;SDS011;2334;48.710;9.622;2024-01-07T13:18:10;11.07;;;6.43;;
4642;SDS011;2334;48.710;9.622;2024-01-07T13:20:38;10.53;;;6.30;;
4642;SDS011;2334;48.710;9.622;2024-01-07T13:23:05;11.30;;;6.47;;
4642;SDS011;2334;48.710;9.622;2024-01-07T13:25:32;12.83;;;6.43;;
4642;SDS011;2334;48.710;9.622;2024-01-07T13:28:01;13.07;;;7.20;;
4642;SDS011;2334;48.710;9.622;2024-01-07T13:30:28;12.67;;;7.13;;
4642;SDS011;2334;48.710;9.622;2024-01-07T13:32:55;13.20;;;7.20;;
4642;SDS011;2334;48.710;9.622;2024-01-07T13:35:23;16.03;;;8.07;;
4642;SDS011;2334;48.710;9.622;2024-01-07T13:37:50;13.77;;;7.77;;
4642;SDS011;2334;48.710;9.622;2024-01-07T13:40:17;16.33;;;8.67;;
4642;SDS011;2334;48.710;9.622;2024-01-07T13:42:44;16.57;;;7.20;;
4642;SDS011;2334;48.710;9.622;2024-01-07T13:45:17;10.93;;;7.50;;
4642;SDS011;2334;48.710;9.622;2024-01-07T13:47:45;16.03;;;7.17;;
4642;SDS011;2334;48.710;9.622;2024-01-07T13:50:13;12.90;;;7.03;;
4642;SDS011;2334;48.710;9.622;2024-01-07T13:52:40;12.73;;;6.67;;
4642;SDS011;2334;48.710;9.622;2024-01-07T13:55:07;13.40;;;7.73;;
4642;SDS011;2334;48.710;9.622;2024-01-07T13:57:35;17.63;;;8.97;;
4642;SDS011;2334;48.710;9.622;2024-01-07T14:00:02;11.53;;;7.27;;
4642;SDS011;2334;48.710;9.622;2024-01-07T14:02:35;14.80;;;7.57;;
4642;SDS011;2334;48.710;9.622;2024-01-07T14:05:04;12.20;;;6.53;;
4642;SDS011;2334;48.710;9.622;2024-01-07T14:07:34;16.07;;;7.13;;
4642;SDS011;2334;48.710;9.622;2024-01-07T14:10:00;16.57;;;6.00;;
4642;SDS011;2334;48.710;9.622;2024-01-07T14:12:29;11.37;;;7.53;;
4642;SDS011;2334;48.710;9.622;2024-01-07T14:14:56;15.30;;;8.27;;
4642;SDS011;2334;48.710;9.622;2024-01-07T14:17:23;11.90;;;7.77;;
4642;SDS011;2334;48.710;9.622;2024-01-07T14:19:52;15.53;;;7.63;;
4642;SDS011;2334;48.710;9.622;2024-01-07T14:22:19;13.27;;;7.80;;
4642;SDS011;2334;48.710;9.622;2024-01-07T14:24:46;15.30;;;8.20;;
4642;SDS011;2334;48.710;9.622;2024-01-07T14:27:13;15.83;;;8.50;;
4642;SDS011;2334;48.710;9.622;2024-01-07T14:29:41;18.87;;;8.33;;
4642;SDS011;2334;48.710;9.622;2024-01-07T14:32:08;13.20;;;8.50;;
4642;SDS011;2334;48.710;9.622;2024-01-07T14:34:37;16.03;;;7.50;;
4642;SDS011;2334;48.710;9.622;2024-01-07T14:37:06;13.03;;;6.90;;
4642;SDS011;2334;48.710;9.622;2024-01-07T14:39:34;15.97;;;8.77;;
4642;SDS011;2334;48.710;9.622;2024-01-07T14:42:01;18.30;;;8.07;;
4642;SDS011;2334;48.710;9.622;2024-01-07T14:44:28;14.50;;;7.87;;
4642;SDS011;2334;48.710;9.622;2024-01-07T14:46:55;8.07;;;6.40;;
4642;SDS011;2334;48.710;9.622;2024-01-07T14:49:22;17.77;;;8.00;;
4642;SDS011;2334;48.710;9.622;2024-01-07T14:51:49;23.13;;;8.47;;
4642;SDS011;2334;48.710;9.622;2024-01-07T14:54:17;14.67;;;8.40;;
4642;SDS011;2334;48.710;9.622;2024-01-07T14:56:44;15.70;;;7.13;;
4642;SDS011;2334;48.710;9.622;2024-01-07T14:59:11;17.30;;;7.70;;
4642;SDS011;2334;48.710;9.622;2024-01-07T15:01:39;13.03;;;7.60;;
4642;SDS011;2334;48.710;9.622;2024-01-07T15:04:08;14.90;;;7.73;;
4642;SDS011;2334;48.710;9.622;2024-01-07T15:06:39;16.13;;;6.87;;
4642;SDS011;2334;48.710;9.622;2024-01-07T15:09:07;16.80;;;7.90;;
4642;SDS011;2334;48.710;9.622;2024-01-07T15:11:35;13.03;;;7.27;;
4642;SDS011;2334;48.710;9.622;2024-01-07T15:14:03;13.43;;;7.30;;
4642;SDS011;2334;48.710;9.622;2024-01-07T15:16:33;23.40;;;8.27;;